CheckWX is a tool to help pilots better visualize weather data.  It is not intended as a substitute for an official pre-flight weather briefing.

14:45:18 UTC

DTNH METAR
Enfidha - Hammamet International Airport
Enfidha, Tunisia
Current

45 mins ago

DTNH 221400Z 34005KT 6000 NSC 26/13 Q0997 NOSIG
Observed
Apr-22 @ 14:00 UTC
Wind
  • 340° at 5 KTS
Visibility
6,003 meters
Flight Rules
MVFR
Cloud Levels
  • Clear skies
Temperature
26°C / 79°F
Dewpoint
13°C / 55°F
Humidity
45%
Altimeter
29.44" Hg
Pressure
996.92 hPa
Previous

1 hour ago

DTNH 221330Z 05007KT 7000 NSC 24/15 Q0997 NOSIG
Observed
Apr-22 @ 13:30 UTC
Wind
  • 050° at 7 KTS
Visibility
7,001 meters
Flight Rules
MVFR
Cloud Levels
  • Clear skies
Temperature
24°C / 75°F
Dewpoint
15°C / 59°F
Humidity
57%
Altimeter
29.44" Hg
Pressure
996.92 hPa
Previous

2 hours ago

DTNH 221300Z AUTO 06010KT 9000NDV NCD 23/14 Q0997
Observed
Apr-22 @ 13:00 UTC
Wind
  • 060° at 10 KTS
Visibility
Cloud Levels
  • Clear skies
Temperature
23°C / 73°F
Dewpoint
14°C / 57°F
Humidity
57%
Altimeter
29.44" Hg
Pressure
996.92 hPa